Santa Barbara — 3FWW8 — position and weather

sailwx.info

Track history (hours):
 
Tides and Currents Weather Stations Pressure Air Temp Water Temp Dewpoint Dewpoint Depression Visibility Wind Speed Wind Dir Waves Ship Positions

Santa Barbara

Last reported at 2018-Jun-07 18:52 UTC. Time now 2018-Jun-20 11:11 UTC.
Position N 37°46' E 122°33'.
Warning: this ship's position is 12 days out of date.

Length 225 m; draft 14.1 m.

Type: Cargo ship. MMSI: 372230000.

Date/timePositionNaut miles runAvg speedWind from/ knotsBaromVisibWave heightAir tempDewpointWater temp
2018-Jun-07 18:52N 37°46' E 122°33'511.5
2018-Jun-07 18:28N 37°46' E 122°27'811.3
2018-Jun-07 17:46N 37°46' E 122°17'311.3
2018-Jun-07 17:30N 37°46' E 122°14'611.7
2018-Jun-07 17:00N 37°47' E 122°06'1011.6
2018-Jun-07 16:09N 37°48' E 121°54'411.7
2018-Jun-07 15:50N 37°49' E 121°49'411.7
2018-Jun-07 15:30N 37°49' E 121°44'611.4
2018-Jun-07 15:00N 37°49' E 121°37'611.5
2018-Jun-07 14:30N 37°50' E 121°30'611.5
2018-Jun-07 14:00N 37°50' E 121°23'611.2
2018-Jun-07 13:30N 37°50' E 121°16'5 9.6
2018-Jun-07 12:59N 37°47' E 121°11'4 7.9
2018-Jun-07 12:30N 37°44' E 121°08'1 1.4
2018-Jun-07 11:48N 37°43' E 121°07'0 0.0
2018-Jun-07 11:24N 37°43' E 121°07'0 0.0
2018-Jun-07 10:57N 37°43' E 121°07'0 0.0
2018-Jun-07 10:30N 37°43' E 121°07'0 0.0
2018-Jun-07 10:00N 37°43' E 121°07'0 0.0
2018-Jun-07 09:30N 37°43' E 121°07'0 0.0
2018-Jun-07 09:00N 37°43' E 121°07'0 0.0
2018-Jun-07 08:30N 37°43' E 121°07'0 0.0
2018-Jun-07 07:57N 37°43' E 121°07'0 0.0
2018-Jun-07 07:24N 37°43' E 121°07'0 0.0
2018-Jun-07 07:00N 37°43' E 121°07'0 0.0
2018-Jun-07 06:30N 37°43' E 121°07'0 0.0
2018-Jun-07 06:00N 37°43' E 121°07'0 0.0
2018-Jun-07 05:30N 37°43' E 121°07'0 0.0
2018-Jun-07 04:57N 37°43' E 121°07'0 0.0
2018-Jun-07 04:24N 37°43' E 121°07'0 0.0
2018-Jun-07 04:00N 37°43' E 121°07'0 0.0
2018-Jun-07 03:30N 37°43' E 121°07'0 0.0
2018-Jun-07 03:00N 37°43' E 121°07'0 0.0
2018-Jun-07 02:30N 37°43' E 121°07'0 0.0
2018-Jun-07 01:57N 37°43' E 121°07'0 0.0
2018-Jun-07 01:30N 37°43' E 121°07'0 0.0
2018-Jun-07 01:00N 37°43' E 121°07'0 0.0
2018-Jun-07 00:30N 37°43' E 121°07'0 0.0
2018-Jun-07 00:00N 37°43' E 121°07'0 0.0
2018-Jun-06 23:30N 37°43' E 121°07'0 0.0
2018-Jun-06 22:54N 37°43' E 121°07'0 0.0
2018-Jun-06 22:30N 37°43' E 121°07'0 0.0
2018-Jun-06 21:57N 37°43' E 121°07'0 0.0
2018-Jun-06 21:30N 37°43' E 121°07'0 0.0
2018-Jun-06 20:54N 37°43' E 121°07'0 0.0
2018-Jun-06 20:30N 37°43' E 121°07'0 0.0
2018-Jun-06 20:00N 37°43' E 121°07'0 0.0
2018-Jun-06 19:27N 37°43' E 121°07'0 0.0
2018-Jun-06 18:57N 37°43' E 121°07'0 0.0
2018-Jun-06 18:30N 37°43' E 121°07'0 0.0
2018-Jun-06 17:57N 37°43' E 121°07'0 0.0
2018-Jun-06 17:27N 37°43' E 121°07'0 0.0
2018-Jun-06 16:57N 37°43' E 121°07'0 0.0
2018-Jun-06 16:30N 37°43' E 121°07'0 0.0
2018-Jun-06 15:57N 37°43' E 121°07'0 0.0
2018-Jun-06 15:27N 37°43' E 121°07'0 0.0
2018-Jun-06 14:54N 37°43' E 121°07'0 0.0
2018-Jun-06 14:18N 37°43' E 121°07'0 0.0
2018-Jun-06 13:48N 37°43' E 121°07'0 0.0
2018-Jun-06 13:00N 37°43' E 121°07'0 0.0
2018-Jun-06 12:18N 37°43' E 121°07'0 0.0
2018-Jun-06 11:54N 37°43' E 121°07'0 0.0
2018-Jun-06 11:30N 37°43' E 121°07'0 0.0
2018-Jun-06 11:00N 37°43' E 121°07'0 0.0
2018-Jun-06 10:21N 37°43' E 121°07'0 0.0
2018-Jun-06 09:57N 37°43' E 121°07'0 0.0
2018-Jun-06 08:51N 37°43' E 121°07'0 0.0
2018-Jun-06 08:30N 37°43' E 121°07'0 0.0
2018-Jun-06 07:54N 37°43' E 121°07'0 0.0
2018-Jun-06 07:30N 37°43' E 121°07'0 0.0
2018-Jun-06 07:00N 37°43' E 121°07'0 0.0
2018-Jun-06 06:21N 37°43' E 121°07'0 0.0
2018-Jun-06 05:57N 37°43' E 121°07'0 0.0
2018-Jun-06 05:24N 37°43' E 121°07'0 0.0
2018-Jun-06 05:00N 37°43' E 121°07'1 2.9
2018-Jun-06 04:30N 37°44' E 121°08'3 5.6
2018-Jun-06 04:00N 37°46' E 121°11'0 0.6
2018-Jun-06 03:30N 37°46' E 121°11'1 1.3
2018-Jun-06 03:01N 37°47' E 121°12'2 4.9
2018-Jun-06 02:31N 37°47' E 121°15'3 6.6
2018-Jun-06 02:00N 37°49' E 121°18'1 1.4
2018-Jun-06 01:26N 37°49' E 121°19'0 0.1
2018-Jun-06 00:56N 37°49' E 121°19'0 0.1
2018-Jun-06 00:29N 37°49' E 121°19'0 0.1
2018-Jun-05 23:59N 37°49' E 121°19'0 0.1
2018-Jun-05 23:29N 37°49' E 121°19'0 0.1
2018-Jun-05 22:59N 37°49' E 121°19'0 0.1
2018-Jun-05 22:29N 37°49' E 121°19'0 0.2
2018-Jun-05 21:59N 37°49' E 121°19'0 0.1
2018-Jun-05 21:29N 37°49' E 121°19'0 0.0
2018-Jun-05 20:53N 37°49' E 121°19'0 0.0
2018-Jun-05 20:29N 37°49' E 121°19'0 0.0
2018-Jun-05 19:59N 37°49' E 121°19'0 0.0
2018-Jun-05 19:29N 37°49' E 121°19'0 0.1
2018-Jun-05 18:59N 37°49' E 121°19'0 0.0
2018-Jun-05 18:29N 37°49' E 121°19'0 0.1
2018-Jun-05 17:59N 37°49' E 121°19'0 0.1
2018-Jun-05 17:26N 37°49' E 121°19'0 0.0
2018-Jun-05 16:59N 37°49' E 121°19'0 0.1
2018-Jun-05 16:26N 37°49' E 121°19'0 0.1
2018-Jun-05 15:56N 37°49' E 121°19'0 0.0
2018-Jun-05 15:23N 37°49' E 121°19'0 0.0
2018-Jun-05 14:59N 37°49' E 121°19'0 0.0
2018-Jun-05 14:29N 37°49' E 121°19'0 0.0
2018-Jun-05 13:56N 37°49' E 121°19'0 0.0
2018-Jun-05 13:29N 37°49' E 121°19'0 0.1
2018-Jun-05 12:59N 37°49' E 121°19'0 0.2
2018-Jun-05 12:29N 37°49' E 121°19'1 1.9
2018-Jun-05 12:01N 37°49' E 121°20'3 6.8
2018-Jun-05 11:30N 37°50' E 121°24'612.7
2018-Jun-05 11:00N 37°50' E 121°32'713.3
2018-Jun-05 10:28N 37°50' E 121°42'613.4
2018-Jun-05 10:00N 37°50' E 121°49'713.1
2018-Jun-05 09:30N 37°50' E 121°58'2013.0
2018-Jun-05 07:57N 37°50' E 122°23'  
2018-May-29 11:35N 30°42' E 124°48'111.6
2018-May-29 11:30N 30°41' E 124°48'611.6
2018-May-29 11:00N 30°35' E 124°49'711.5
2018-May-29 10:23N 30°28' E 124°50'  
Track history (hours):
 
Tides and Currents Weather Stations Pressure Air Temp Water Temp Dewpoint Dewpoint Depression Visibility Wind Speed Wind Dir Waves Ship Positions

Santa Barbara

Last reported at 2018-Jun-07 18:52 UTC. Time now 2018-Jun-20 11:11 UTC.
Position N 37°46' E 122°33'.
Warning: this ship's position is 12 days out of date.

Length 225 m; draft 14.1 m.

Type: Cargo ship. MMSI: 372230000.

Date/timePositionNaut miles runAvg speedWind from/ knotsBaromVisibWave heightAir tempDewpointWater temp
2018-Jun-07 18:52N 37°46' E 122°33'511.5
2018-Jun-07 18:28N 37°46' E 122°27'811.3
2018-Jun-07 17:46N 37°46' E 122°17'311.3
2018-Jun-07 17:30N 37°46' E 122°14'611.7
2018-Jun-07 17:00N 37°47' E 122°06'1011.6
2018-Jun-07 16:09N 37°48' E 121°54'411.7
2018-Jun-07 15:50N 37°49' E 121°49'411.7
2018-Jun-07 15:30N 37°49' E 121°44'611.4
2018-Jun-07 15:00N 37°49' E 121°37'611.5
2018-Jun-07 14:30N 37°50' E 121°30'611.5
2018-Jun-07 14:00N 37°50' E 121°23'611.2
2018-Jun-07 13:30N 37°50' E 121°16'5 9.6
2018-Jun-07 12:59N 37°47' E 121°11'4 7.9
2018-Jun-07 12:30N 37°44' E 121°08'1 1.4
2018-Jun-07 11:48N 37°43' E 121°07'0 0.0
2018-Jun-07 11:24N 37°43' E 121°07'0 0.0
2018-Jun-07 10:57N 37°43' E 121°07'0 0.0
2018-Jun-07 10:30N 37°43' E 121°07'0 0.0
2018-Jun-07 10:00N 37°43' E 121°07'0 0.0
2018-Jun-07 09:30N 37°43' E 121°07'0 0.0
2018-Jun-07 09:00N 37°43' E 121°07'0 0.0
2018-Jun-07 08:30N 37°43' E 121°07'0 0.0
2018-Jun-07 07:57N 37°43' E 121°07'0 0.0
2018-Jun-07 07:24N 37°43' E 121°07'0 0.0
2018-Jun-07 07:00N 37°43' E 121°07'0 0.0
2018-Jun-07 06:30N 37°43' E 121°07'0 0.0
2018-Jun-07 06:00N 37°43' E 121°07'0 0.0
2018-Jun-07 05:30N 37°43' E 121°07'0 0.0
2018-Jun-07 04:57N 37°43' E 121°07'0 0.0
2018-Jun-07 04:24N 37°43' E 121°07'0 0.0
2018-Jun-07 04:00N 37°43' E 121°07'0 0.0
2018-Jun-07 03:30N 37°43' E 121°07'0 0.0
2018-Jun-07 03:00N 37°43' E 121°07'0 0.0
2018-Jun-07 02:30N 37°43' E 121°07'0 0.0
2018-Jun-07 01:57N 37°43' E 121°07'0 0.0
2018-Jun-07 01:30N 37°43' E 121°07'0 0.0
2018-Jun-07 01:00N 37°43' E 121°07'0 0.0
2018-Jun-07 00:30N 37°43' E 121°07'0 0.0
2018-Jun-07 00:00N 37°43' E 121°07'0 0.0
2018-Jun-06 23:30N 37°43' E 121°07'0 0.0
2018-Jun-06 22:54N 37°43' E 121°07'0 0.0
2018-Jun-06 22:30N 37°43' E 121°07'0 0.0
2018-Jun-06 21:57N 37°43' E 121°07'0 0.0
2018-Jun-06 21:30N 37°43' E 121°07'0 0.0
2018-Jun-06 20:54N 37°43' E 121°07'0 0.0
2018-Jun-06 20:30N 37°43' E 121°07'0 0.0
2018-Jun-06 20:00N 37°43' E 121°07'0 0.0
2018-Jun-06 19:27N 37°43' E 121°07'0 0.0
2018-Jun-06 18:57N 37°43' E 121°07'0 0.0
2018-Jun-06 18:30N 37°43' E 121°07'0 0.0
2018-Jun-06 17:57N 37°43' E 121°07'0 0.0
2018-Jun-06 17:27N 37°43' E 121°07'0 0.0
2018-Jun-06 16:57N 37°43' E 121°07'0 0.0
2018-Jun-06 16:30N 37°43' E 121°07'0 0.0
2018-Jun-06 15:57N 37°43' E 121°07'0 0.0
2018-Jun-06 15:27N 37°43' E 121°07'0 0.0
2018-Jun-06 14:54N 37°43' E 121°07'0 0.0
2018-Jun-06 14:18N 37°43' E 121°07'0 0.0
2018-Jun-06 13:48N 37°43' E 121°07'0 0.0
2018-Jun-06 13:00N 37°43' E 121°07'0 0.0
2018-Jun-06 12:18N 37°43' E 121°07'0 0.0
2018-Jun-06 11:54N 37°43' E 121°07'0 0.0
2018-Jun-06 11:30N 37°43' E 121°07'0 0.0
2018-Jun-06 11:00N 37°43' E 121°07'0 0.0
2018-Jun-06 10:21N 37°43' E 121°07'0 0.0
2018-Jun-06 09:57N 37°43' E 121°07'0 0.0
2018-Jun-06 08:51N 37°43' E 121°07'0 0.0
2018-Jun-06 08:30N 37°43' E 121°07'0 0.0
2018-Jun-06 07:54N 37°43' E 121°07'0 0.0
2018-Jun-06 07:30N 37°43' E 121°07'0 0.0
2018-Jun-06 07:00N 37°43' E 121°07'0 0.0
2018-Jun-06 06:21N 37°43' E 121°07'0 0.0
2018-Jun-06 05:57N 37°43' E 121°07'0 0.0
2018-Jun-06 05:24N 37°43' E 121°07'0 0.0
2018-Jun-06 05:00N 37°43' E 121°07'1 2.9
2018-Jun-06 04:30N 37°44' E 121°08'3 5.6
2018-Jun-06 04:00N 37°46' E 121°11'0 0.6
2018-Jun-06 03:30N 37°46' E 121°11'1 1.3
2018-Jun-06 03:01N 37°47' E 121°12'2 4.9
2018-Jun-06 02:31N 37°47' E 121°15'3 6.6
2018-Jun-06 02:00N 37°49' E 121°18'1 1.4
2018-Jun-06 01:26N 37°49' E 121°19'0 0.1
2018-Jun-06 00:56N 37°49' E 121°19'0 0.1
2018-Jun-06 00:29N 37°49' E 121°19'0 0.1
2018-Jun-05 23:59N 37°49' E 121°19'0 0.1
2018-Jun-05 23:29N 37°49' E 121°19'0 0.1
2018-Jun-05 22:59N 37°49' E 121°19'0 0.1
2018-Jun-05 22:29N 37°49' E 121°19'0 0.2
2018-Jun-05 21:59N 37°49' E 121°19'0 0.1
2018-Jun-05 21:29N 37°49' E 121°19'0 0.0
2018-Jun-05 20:53N 37°49' E 121°19'0 0.0
2018-Jun-05 20:29N 37°49' E 121°19'0 0.0
2018-Jun-05 19:59N 37°49' E 121°19'0 0.0
2018-Jun-05 19:29N 37°49' E 121°19'0 0.1
2018-Jun-05 18:59N 37°49' E 121°19'0 0.0
2018-Jun-05 18:29N 37°49' E 121°19'0 0.1
2018-Jun-05 17:59N 37°49' E 121°19'0 0.1
2018-Jun-05 17:26N 37°49' E 121°19'0 0.0
2018-Jun-05 16:59N 37°49' E 121°19'0 0.1
2018-Jun-05 16:26N 37°49' E 121°19'0 0.1
2018-Jun-05 15:56N 37°49' E 121°19'0 0.0
2018-Jun-05 15:23N 37°49' E 121°19'0 0.0
2018-Jun-05 14:59N 37°49' E 121°19'0 0.0
2018-Jun-05 14:29N 37°49' E 121°19'0 0.0
2018-Jun-05 13:56N 37°49' E 121°19'0 0.0
2018-Jun-05 13:29N 37°49' E 121°19'0 0.1
2018-Jun-05 12:59N 37°49' E 121°19'0 0.2
2018-Jun-05 12:29N 37°49' E 121°19'1 1.9
2018-Jun-05 12:01N 37°49' E 121°20'3 6.8
2018-Jun-05 11:30N 37°50' E 121°24'612.7
2018-Jun-05 11:00N 37°50' E 121°32'713.3
2018-Jun-05 10:28N 37°50' E 121°42'613.4
2018-Jun-05 10:00N 37°50' E 121°49'713.1
2018-Jun-05 09:30N 37°50' E 121°58'2013.0
2018-Jun-05 07:57N 37°50' E 122°23'  
2018-May-29 11:35N 30°42' E 124°48'111.6
2018-May-29 11:30N 30°41' E 124°48'611.6
2018-May-29 11:00N 30°35' E 124°49'711.5
2018-May-29 10:23N 30°28' E 124°50'  

Dump ship's entire track history